Time;durP1;ratioP1;P1;durP2;ratioP2;P2;SDS_P1;SDS_P2;PMS_P1;PMS_P2;Temp;Humidity;BMP_temperature;BMP_pressure;BME280_temperature;BME280_humidity;BME280_pressure;Samples;Min_cycle;Max_cycle;Signal;HPM_P1;HPM_P2
2022/03/19 00:00:02;;;;;;;17.55;2.72;;;;;;;;;;5079925;28;20047;-71
2022/03/19 00:02:30;;;;;;;14.27;2.20;;;;;;;;;;5080873;28;20063;-71
2022/03/19 00:04:57;;;;;;;24.10;2.88;;;;;;;;;;5077082;28;20449;-71
2022/03/19 00:07:24;;;;;;;22.10;3.15;;;;;;;;;;5076906;28;20057;-72
2022/03/19 00:09:52;;;;;;;16.17;2.70;;;;;;;;;;5079241;28;20051;-72
2022/03/19 00:12:20;;;;;;;20.13;2.63;;;;;;;;;;5081650;28;20052;-72
2022/03/19 00:14:48;;;;;;;15.43;2.50;;;;;;;;;;5081677;28;20067;-72
2022/03/19 00:17:15;;;;;;;20.02;2.35;;;;;;;;;;5080032;28;20082;-72
2022/03/19 00:19:42;;;;;;;17.42;2.70;;;;;;;;;;5076349;28;20052;-72
2022/03/19 00:22:09;;;;;;;16.05;2.15;;;;;;;;;;5078000;28;20049;-72
2022/03/19 00:24:37;;;;;;;17.42;2.83;;;;;;;;;;5082968;28;20048;-71
2022/03/19 00:27:04;;;;;;;18.67;2.72;;;;;;;;;;5083226;28;20101;-72
2022/03/19 00:29:33;;;;;;;16.20;2.30;;;;;;;;;;5083521;28;20860;-72
2022/03/19 00:32:00;;;;;;;14.63;2.45;;;;;;;;;;5085081;28;20055;-72
2022/03/19 00:34:28;;;;;;;15.10;2.33;;;;;;;;;;5082558;28;20052;-72
2022/03/19 00:36:56;;;;;;;13.98;2.10;;;;;;;;;;5083968;28;20192;-72
2022/03/19 00:39:23;;;;;;;12.32;2.08;;;;;;;;;;5081747;28;20168;-72
2022/03/19 00:41:50;;;;;;;14.18;2.30;;;;;;;;;;5082744;28;20152;-72
2022/03/19 00:44:21;;;;;;;17.08;2.50;;;;;;;;;;5084444;28;20058;-71
2022/03/19 00:46:49;;;;;;;16.50;2.38;;;;;;;;;;5082931;28;20047;-71
2022/03/19 00:49:17;;;;;;;16.23;2.13;;;;;;;;;;5084240;28;20421;-71
2022/03/19 00:51:45;;;;;;;18.52;2.22;;;;;;;;;;5080024;28;20090;-71
2022/03/19 00:54:12;;;;;;;17.60;2.10;;;;;;;;;;5076612;28;20052;-71
2022/03/19 00:56:40;;;;;;;19.13;2.53;;;;;;;;;;5078360;28;20044;-71
2022/03/19 00:59:08;;;;;;;16.08;2.67;;;;;;;;;;5079836;28;20163;-71
2022/03/19 01:01:36;;;;;;;12.00;2.00;;;;;;;;;;5076428;28;20048;-72
2022/03/19 01:04:05;;;;;;;14.48;2.60;;;;;;;;;;5076185;28;20469;-71
2022/03/19 01:06:32;;;;;;;17.98;2.35;;;;;;;;;;5076675;28;20526;-71
2022/03/19 01:08:59;;;;;;;13.18;1.98;;;;;;;;;;5074023;28;20060;-73
2022/03/19 01:11:27;;;;;;;14.55;2.08;;;;;;;;;;5076411;28;20052;-71
2022/03/19 01:13:55;;;;;;;16.90;2.70;;;;;;;;;;5081084;28;20570;-71
2022/03/19 01:16:23;;;;;;;19.98;2.53;;;;;;;;;;5078409;28;20047;-71
2022/03/19 01:18:50;;;;;;;16.98;2.60;;;;;;;;;;5076652;28;20311;-71
2022/03/19 01:21:19;;;;;;;10.35;2.20;;;;;;;;;;5086765;28;20044;-71
2022/03/19 01:23:46;;;;;;;23.60;3.25;;;;;;;;;;5086810;28;20044;-71
2022/03/19 01:26:14;;;;;;;19.45;2.85;;;;;;;;;;5079382;28;20040;-71
2022/03/19 01:28:41;;;;;;;15.60;2.35;;;;;;;;;;5083556;28;20090;-71
2022/03/19 01:31:11;;;;;;;15.98;2.40;;;;;;;;;;5086635;28;20417;-71
2022/03/19 01:33:38;;;;;;;13.13;2.47;;;;;;;;;;5080543;28;20055;-71
2022/03/19 01:36:05;;;;;;;22.30;3.17;;;;;;;;;;5086797;28;20040;-72
2022/03/19 01:38:34;;;;;;;17.77;2.03;;;;;;;;;;5076072;28;20797;-72
2022/03/19 01:41:01;;;;;;;15.15;2.55;;;;;;;;;;5083029;28;20056;-72
2022/03/19 01:43:29;;;;;;;26.45;3.22;;;;;;;;;;5086944;28;20044;-72
2022/03/19 01:45:56;;;;;;;18.85;2.65;;;;;;;;;;5086590;28;20051;-72
2022/03/19 01:48:25;;;;;;;21.58;2.72;;;;;;;;;;5085112;28;20060;-72
2022/03/19 01:50:52;;;;;;;14.48;2.10;;;;;;;;;;5086117;28;20056;-71
2022/03/19 01:53:20;;;;;;;20.45;2.67;;;;;;;;;;5082130;28;20503;-71
2022/03/19 01:55:48;;;;;;;18.88;3.17;;;;;;;;;;5078377;28;20043;-71
2022/03/19 01:58:16;;;;;;;15.75;2.60;;;;;;;;;;5087340;28;20507;-71
2022/03/19 02:00:43;;;;;;;23.33;3.55;;;;;;;;;;5082105;28;20052;-75
2022/03/19 02:03:10;;;;;;;19.58;2.67;;;;;;;;;;5079707;28;20055;-74
2022/03/19 02:05:38;;;;;;;19.92;2.20;;;;;;;;;;5082863;28;20052;-74
2022/03/19 02:08:05;;;;;;;22.67;2.90;;;;;;;;;;5092748;27;20076;-74
2022/03/19 02:10:34;;;;;;;17.58;2.85;;;;;;;;;;5081413;28;20055;-74
2022/03/19 02:13:02;;;;;;;23.42;2.78;;;;;;;;;;5079830;28;20056;-74
2022/03/19 02:15:30;;;;;;;23.35;2.60;;;;;;;;;;5079882;28;20047;-74
2022/03/19 02:17:57;;;;;;;16.15;2.17;;;;;;;;;;5081433;28;20068;-74
2022/03/19 02:20:24;;;;;;;23.42;2.67;;;;;;;;;;5083713;28;20052;-75
2022/03/19 02:25:41;;;;;;;24.92;3.40;;;;;;;;;;5080197;28;20502;-75
2022/03/19 02:28:08;;;;;;;22.50;3.47;;;;;;;;;;5081939;28;20044;-74
2022/03/19 02:30:39;;;;;;;23.20;2.60;;;;;;;;;;5082012;28;20117;-74
2022/03/19 02:33:07;;;;;;;19.40;2.53;;;;;;;;;;5082793;28;20130;-74
2022/03/19 02:35:34;;;;;;;16.80;2.40;;;;;;;;;;5081435;28;20043;-74
2022/03/19 02:38:02;;;;;;;22.95;2.17;;;;;;;;;;5077995;28;20053;-75
2022/03/19 02:40:30;;;;;;;19.33;2.90;;;;;;;;;;5082969;28;20052;-74
2022/03/19 02:42:57;;;;;;;23.23;2.90;;;;;;;;;;5082263;28;20053;-74
2022/03/19 02:45:25;;;;;;;20.58;2.97;;;;;;;;;;5084044;28;20117;-74
2022/03/19 02:47:58;;;;;;;20.30;2.60;;;;;;;;;;5083127;28;20101;-75
2022/03/19 02:50:25;;;;;;;;;;;;;;;;;;5085423;28;20055;-74
2022/03/19 02:52:53;;;;;;;18.60;3.03;;;;;;;;;;5114859;27;20010;-75
2022/03/19 02:55:21;;;;;;;24.65;3.55;;;;;;;;;;5085283;28;20101;-75
2022/03/19 02:57:49;;;;;;;20.48;3.83;;;;;;;;;;5079939;28;20052;-75
2022/03/19 03:00:16;;;;;;;31.70;3.15;;;;;;;;;;5085776;28;20568;-75
2022/03/19 03:02:43;;;;;;;28.90;3.53;;;;;;;;;;5076650;28;20109;-74
2022/03/19 03:05:14;;;;;;;21.95;3.33;;;;;;;;;;5080189;28;20055;-74
2022/03/19 03:07:41;;;;;;;21.13;2.53;;;;;;;;;;5082673;28;20492;-74
2022/03/19 03:10:09;;;;;;;19.67;2.72;;;;;;;;;;5086329;28;20105;-74
2022/03/19 03:12:38;;;;;;;23.67;3.13;;;;;;;;;;5079080;28;20048;-74
2022/03/19 03:15:06;;;;;;;20.50;3.28;;;;;;;;;;5086290;28;20056;-74
2022/03/19 03:17:34;;;;;;;26.70;3.17;;;;;;;;;;5078652;28;20055;-74
2022/03/19 03:20:01;;;;;;;21.60;3.33;;;;;;;;;;5082657;28;20082;-74
2022/03/19 03:22:29;;;;;;;27.00;3.13;;;;;;;;;;5085448;28;20572;-74
2022/03/19 03:24:56;;;;;;;20.60;3.00;;;;;;;;;;5079432;28;20048;-74
2022/03/19 03:27:23;;;;;;;23.73;3.28;;;;;;;;;;5083174;28;20044;-74
2022/03/19 03:29:52;;;;;;;28.27;3.58;;;;;;;;;;5080939;28;20057;-74
2022/03/19 03:32:19;;;;;;;30.05;3.92;;;;;;;;;;5084071;28;20068;-74
2022/03/19 03:34:46;;;;;;;20.77;3.42;;;;;;;;;;5084724;28;20051;-74
2022/03/19 03:37:13;;;;;;;25.48;3.25;;;;;;;;;;5084815;28;20140;-75
2022/03/19 03:39:40;;;;;;;24.42;3.17;;;;;;;;;;5082259;28;20051;-74
2022/03/19 03:42:08;;;;;;;21.23;3.08;;;;;;;;;;5083529;28;20051;-74
2022/03/19 03:44:35;;;;;;;25.55;3.63;;;;;;;;;;5082335;28;20121;-74
2022/03/19 03:47:04;;;;;;;24.40;3.10;;;;;;;;;;5082499;28;20055;-74
2022/03/19 03:49:31;;;;;;;24.17;3.25;;;;;;;;;;5083330;28;21322;-74
2022/03/19 03:51:58;;;;;;;20.80;3.42;;;;;;;;;;5080063;28;20056;-74
2022/03/19 03:54:26;;;;;;;22.67;3.13;;;;;;;;;;5085004;28;20048;-74
2022/03/19 03:56:53;;;;;;;24.80;3.85;;;;;;;;;;5081692;28;20059;-74
2022/03/19 03:59:23;;;;;;;18.23;3.53;;;;;;;;;;5079289;28;20056;-74
2022/03/19 04:01:50;;;;;;;18.35;4.15;;;;;;;;;;5078465;28;20056;-74
2022/03/19 04:04:19;;;;;;;27.05;3.70;;;;;;;;;;5077199;28;20110;-74
2022/03/19 04:06:46;;;;;;;22.80;3.92;;;;;;;;;;5082052;28;20056;-74
2022/03/19 04:09:13;;;;;;;20.38;3.00;;;;;;;;;;5082086;28;20060;-74
2022/03/19 04:11:40;;;;;;;20.55;3.67;;;;;;;;;;5084755;28;20044;-74
2022/03/19 04:14:08;;;;;;;19.77;3.55;;;;;;;;;;5082639;28;20056;-74
2022/03/19 04:16:37;;;;;;;19.10;3.00;;;;;;;;;;5079989;28;20052;-74
2022/03/19 04:19:04;;;;;;;22.17;3.70;;;;;;;;;;5082311;28;20133;-74
2022/03/19 04:21:33;;;;;;;31.30;4.00;;;;;;;;;;5083850;28;20553;-74
2022/03/19 04:24:01;;;;;;;22.40;4.03;;;;;;;;;;5082222;28;20052;-74
2022/03/19 04:26:28;;;;;;;22.33;3.88;;;;;;;;;;5082454;28;20496;-74
2022/03/19 04:28:55;;;;;;;18.83;3.83;;;;;;;;;;5077244;28;20052;-75
2022/03/19 04:31:22;;;;;;;22.23;3.53;;;;;;;;;;5078629;28;20044;-75
2022/03/19 04:33:49;;;;;;;25.58;4.53;;;;;;;;;;5080399;28;20055;-75
2022/03/19 04:36:31;;;;;;;27.05;4.40;;;;;;;;;;5081708;28;20449;-74
2022/03/19 04:38:59;;;;;;;19.02;3.85;;;;;;;;;;5077728;28;20102;-75
2022/03/19 04:41:27;;;;;;;25.35;3.83;;;;;;;;;;5082716;28;20052;-75
2022/03/19 04:43:54;;;;;;;23.42;4.22;;;;;;;;;;5083795;28;20048;-74
2022/03/19 04:46:21;;;;;;;25.15;4.53;;;;;;;;;;5081485;28;20056;-74
2022/03/19 04:48:48;;;;;;;16.38;3.40;;;;;;;;;;5083826;28;20601;-74
2022/03/19 04:51:16;;;;;;;22.33;5.10;;;;;;;;;;5081894;28;20055;-74
2022/03/19 04:53:49;;;;;;;24.58;4.60;;;;;;;;;;5075439;28;20056;-74
2022/03/19 04:56:17;;;;;;;26.20;4.70;;;;;;;;;;5083960;28;20048;-74
2022/03/19 04:58:45;;;;;;;26.40;5.43;;;;;;;;;;5119732;27;20663;-74
2022/03/19 05:01:12;;;;;;;24.73;4.22;;;;;;;;;;5086677;28;20456;-74
2022/03/19 05:03:39;;;;;;;25.08;4.55;;;;;;;;;;5086439;28;20051;-74
2022/03/19 05:06:06;;;;;;;21.77;4.60;;;;;;;;;;5084732;28;20112;-74
2022/03/19 05:08:34;;;;;;;27.25;4.88;;;;;;;;;;5086702;28;20488;-74
2022/03/19 05:11:17;;;;;;;32.83;5.88;;;;;;;;;;5088163;28;20059;-74
2022/03/19 05:13:48;;;;;;;22.65;4.63;;;;;;;;;;5083939;28;20134;-75
2022/03/19 05:16:16;;;;;;;20.35;4.35;;;;;;;;;;5087806;28;20135;-74
2022/03/19 05:18:43;;;;;;;20.40;5.35;;;;;;;;;;5086247;28;20055;-74
2022/03/19 05:21:12;;;;;;;27.67;5.32;;;;;;;;;;5088476;28;20081;-74
2022/03/19 05:23:39;;;;;;;21.95;5.07;;;;;;;;;;5090636;28;20105;-74
2022/03/19 05:26:06;;;;;;;18.90;4.75;;;;;;;;;;5087586;28;20044;-74
2022/03/19 05:28:34;;;;;;;24.30;5.18;;;;;;;;;;5086314;28;20528;-74
2022/03/19 05:31:03;;;;;;;20.55;5.28;;;;;;;;;;5092051;28;20444;-74
2022/03/19 05:36:11;;;;;;;26.83;4.38;;;;;;;;;;5076172;28;20052;-74
2022/03/19 05:38:39;;;;;;;23.67;5.18;;;;;;;;;;5082530;28;20036;-74
2022/03/19 05:41:06;;;;;;;22.15;5.13;;;;;;;;;;5092203;28;20113;-74
2022/03/19 05:43:33;;;;;;;18.75;5.03;;;;;;;;;;5090450;28;20111;-74
2022/03/19 05:46:00;;;;;;;23.83;5.60;;;;;;;;;;5086872;28;20044;-74
2022/03/19 05:48:29;;;;;;;26.08;6.22;;;;;;;;;;5085429;28;20098;-74
2022/03/19 05:50:58;;;;;;;24.75;5.78;;;;;;;;;;5079664;28;20494;-74
2022/03/19 05:53:25;;;;;;;31.85;6.20;;;;;;;;;;5081649;28;20083;-74
2022/03/19 05:55:52;;;;;;;23.92;5.72;;;;;;;;;;5082362;28;20059;-75
2022/03/19 05:58:19;;;;;;;24.65;5.35;;;;;;;;;;5077646;28;20047;-74
2022/03/19 06:00:47;;;;;;;23.52;5.82;;;;;;;;;;5076971;28;20044;-74
2022/03/19 06:03:14;;;;;;;23.15;5.43;;;;;;;;;;5081702;28;20055;-74
2022/03/19 06:05:43;;;;;;;24.75;5.78;;;;;;;;;;5082159;28;20715;-74
2022/03/19 06:08:10;;;;;;;26.48;5.90;;;;;;;;;;5081197;28;20045;-74
2022/03/19 06:10:37;;;;;;;27.08;5.70;;;;;;;;;;5075270;28;20051;-74
2022/03/19 06:13:05;;;;;;;29.52;5.88;;;;;;;;;;5074048;28;20063;-74
2022/03/19 06:15:32;;;;;;;25.98;6.07;;;;;;;;;;5076444;28;20487;-74
2022/03/19 06:17:59;;;;;;;19.13;5.60;;;;;;;;;;5070755;28;20048;-74
2022/03/19 06:20:26;;;;;;;26.52;7.30;;;;;;;;;;5076967;28;20052;-73
2022/03/19 06:22:55;;;;;;;16.92;5.25;;;;;;;;;;5073738;28;20059;-73
2022/03/19 06:25:22;;;;;;;31.63;7.43;;;;;;;;;;5075785;28;20056;-74
2022/03/19 06:27:49;;;;;;;22.88;6.97;;;;;;;;;;5075098;28;20048;-74
2022/03/19 06:30:17;;;;;;;31.30;6.80;;;;;;;;;;5075049;28;20044;-74
2022/03/19 06:32:44;;;;;;;27.95;6.72;;;;;;;;;;5109142;27;20702;-73
2022/03/19 06:37:19;;;;;;;24.27;6.15;;;;;;;;;;5071304;28;20059;-73
2022/03/19 06:37:59;;;;;;;25.30;7.00;;;;;;;;;;5075068;28;20101;-74
2022/03/19 06:40:26;;;;;;;20.13;5.88;;;;;;;;;;5077510;28;20079;-74
2022/03/19 06:42:53;;;;;;;26.67;6.57;;;;;;;;;;5078450;28;20087;-74
2022/03/19 06:45:21;;;;;;;24.98;6.30;;;;;;;;;;5075106;28;20056;-74
2022/03/19 06:47:48;;;;;;;27.60;6.63;;;;;;;;;;5070857;28;20086;-74
2022/03/19 06:50:16;;;;;;;28.85;8.45;;;;;;;;;;5076570;28;21176;-74
2022/03/19 06:52:44;;;;;;;20.77;6.60;;;;;;;;;;5073554;28;20418;-74
2022/03/19 06:55:12;;;;;;;26.55;6.80;;;;;;;;;;5075460;28;20076;-74
2022/03/19 06:57:40;;;;;;;24.02;7.82;;;;;;;;;;5071445;28;20059;-74
2022/03/19 07:00:07;;;;;;;25.67;7.68;;;;;;;;;;5077454;28;20070;-74
2022/03/19 07:02:35;;;;;;;31.55;6.93;;;;;;;;;;5079922;28;20073;-76
2022/03/19 07:05:02;;;;;;;25.08;6.78;;;;;;;;;;5086952;28;20154;-74
2022/03/19 07:07:29;;;;;;;22.70;6.32;;;;;;;;;;5088314;28;20044;-75
2022/03/19 07:09:58;;;;;;;26.42;7.35;;;;;;;;;;5092201;28;20081;-75
2022/03/19 07:12:27;;;;;;;20.13;6.90;;;;;;;;;;5086407;28;20047;-75
2022/03/19 07:14:54;;;;;;;27.92;6.95;;;;;;;;;;5092231;28;20055;-74
2022/03/19 07:17:21;;;;;;;24.50;7.20;;;;;;;;;;5079751;28;20060;-74
2022/03/19 07:19:49;;;;;;;26.10;7.18;;;;;;;;;;5082819;28;20715;-75
2022/03/19 07:22:16;;;;;;;28.95;7.72;;;;;;;;;;5079633;28;20422;-75
2022/03/19 07:24:43;;;;;;;26.05;7.80;;;;;;;;;;5083460;28;20048;-75
2022/03/19 07:27:10;;;;;;;28.35;7.28;;;;;;;;;;5079509;28;20131;-75
2022/03/19 07:29:39;;;;;;;22.98;6.90;;;;;;;;;;5079402;28;20047;-74
2022/03/19 07:32:06;;;;;;;27.60;7.13;;;;;;;;;;5083806;28;20048;-75
2022/03/19 07:34:35;;;;;;;30.40;8.13;;;;;;;;;;5083568;28;20053;-75
2022/03/19 07:37:02;;;;;;;17.30;6.90;;;;;;;;;;5081646;28;20467;-74
2022/03/19 07:39:30;;;;;;;23.17;7.45;;;;;;;;;;5083961;28;20036;-74
2022/03/19 07:41:56;;;;;;;22.10;7.30;;;;;;;;;;5086057;28;20052;-74
2022/03/19 07:44:23;;;;;;;25.88;7.22;;;;;;;;;;5084042;28;20405;-74
2022/03/19 07:46:52;;;;;;;26.77;6.85;;;;;;;;;;5073912;28;20060;-74
2022/03/19 07:49:19;;;;;;;18.38;6.97;;;;;;;;;;5078591;28;20821;-74
2022/03/19 07:51:51;;;;;;;24.58;6.38;;;;;;;;;;5080416;28;20074;-75
2022/03/19 07:54:18;;;;;;;17.63;6.13;;;;;;;;;;5084110;28;20105;-75
2022/03/19 07:56:48;;;;;;;19.58;5.85;;;;;;;;;;5082719;28;20161;-75
2022/03/19 07:59:15;;;;;;;19.90;5.80;;;;;;;;;;5079625;28;20052;-75
2022/03/19 08:01:43;;;;;;;24.17;5.97;;;;;;;;;;5085878;28;20188;-75
2022/03/19 08:04:11;;;;;;;22.27;5.68;;;;;;;;;;5086618;28;20494;-75
2022/03/19 08:06:38;;;;;;;19.52;5.88;;;;;;;;;;5079624;28;20055;-75
2022/03/19 08:09:06;;;;;;;21.88;5.50;;;;;;;;;;5081355;28;20067;-75
2022/03/19 08:11:33;;;;;;;22.60;5.18;;;;;;;;;;5079617;28;20100;-75
2022/03/19 08:14:01;;;;;;;23.20;4.97;;;;;;;;;;5087565;28;20052;-77
2022/03/19 08:16:28;;;;;;;24.10;5.50;;;;;;;;;;5088305;28;20043;-75
2022/03/19 08:18:55;;;;;;;18.88;5.50;;;;;;;;;;5086405;28;21095;-77
2022/03/19 08:21:24;;;;;;;18.92;5.45;;;;;;;;;;5092866;28;20059;-76
2022/03/19 08:23:52;;;;;;;21.85;5.47;;;;;;;;;;5084513;28;20064;-75
2022/03/19 08:26:20;;;;;;;21.65;5.03;;;;;;;;;;5085495;28;20049;-75
2022/03/19 08:28:47;;;;;;;22.00;5.78;;;;;;;;;;5080339;28;20425;-75
2022/03/19 08:31:14;;;;;;;22.65;5.15;;;;;;;;;;5094563;28;20040;-75
2022/03/19 08:33:41;;;;;;;16.65;5.20;;;;;;;;;;5094956;28;20052;-75
2022/03/19 08:36:09;;;;;;;20.40;4.88;;;;;;;;;;5095038;28;20500;-75
2022/03/19 08:41:22;;;;;;;23.27;5.75;;;;;;;;;;5094122;28;20093;-75
2022/03/19 08:43:49;;;;;;;14.80;3.90;;;;;;;;;;5090968;28;20523;-75
2022/03/19 08:46:17;;;;;;;16.73;5.07;;;;;;;;;;5088248;28;21415;-76
2022/03/19 08:48:44;;;;;;;17.55;4.65;;;;;;;;;;5088131;28;20055;-75
2022/03/19 08:53:59;;;;;;;18.60;4.72;;;;;;;;;;5082648;28;20062;-75
2022/03/19 08:56:26;;;;;;;20.42;5.32;;;;;;;;;;5088464;28;20079;-75
2022/03/19 08:58:54;;;;;;;22.75;5.63;;;;;;;;;;5092431;28;20076;-75
2022/03/19 09:01:21;;;;;;;15.05;4.75;;;;;;;;;;5086565;28;20079;-75
2022/03/19 09:03:48;;;;;;;19.60;4.50;;;;;;;;;;5092043;28;20056;-74
2022/03/19 09:06:17;;;;;;;17.85;4.53;;;;;;;;;;5085034;28;20047;-75
2022/03/19 09:08:45;;;;;;;18.15;4.15;;;;;;;;;;5093841;28;20227;-75
2022/03/19 09:11:13;;;;;;;16.95;4.75;;;;;;;;;;5094343;28;20141;-75
2022/03/19 09:13:41;;;;;;;16.42;4.22;;;;;;;;;;5092070;28;20503;-75
2022/03/19 09:16:08;;;;;;;15.25;4.78;;;;;;;;;;5092586;28;20499;-75
2022/03/19 09:18:35;;;;;;;12.65;3.83;;;;;;;;;;5090893;28;20171;-75
2022/03/19 09:21:03;;;;;;;25.13;4.35;;;;;;;;;;5088076;28;20062;-75
2022/03/19 09:23:30;;;;;;;17.50;3.42;;;;;;;;;;5089736;28;20118;-75
2022/03/19 09:25:57;;;;;;;14.68;3.67;;;;;;;;;;5088763;28;20254;-75
2022/03/19 09:28:26;;;;;;;19.30;3.78;;;;;;;;;;5095692;28;20044;-75
2022/03/19 09:30:53;;;;;;;25.20;4.65;;;;;;;;;;5083717;28;20487;-76
2022/03/19 09:33:21;;;;;;;16.33;3.75;;;;;;;;;;5085652;28;20084;-76
2022/03/19 09:35:48;;;;;;;16.00;3.67;;;;;;;;;;5092625;28;20165;-76
2022/03/19 09:38:15;;;;;;;20.05;3.30;;;;;;;;;;5083737;28;20465;-76
2022/03/19 09:40:43;;;;;;;20.70;3.70;;;;;;;;;;5087764;28;20052;-76
2022/03/19 09:43:10;;;;;;;15.57;3.50;;;;;;;;;;5093069;28;20107;-76
2022/03/19 09:45:39;;;;;;;12.57;3.13;;;;;;;;;;5093138;28;20120;-76
2022/03/19 09:48:06;;;;;;;12.90;3.15;;;;;;;;;;5095835;28;20051;-75
2022/03/19 09:50:35;;;;;;;19.77;3.30;;;;;;;;;;5087865;28;20045;-76
2022/03/19 09:53:03;;;;;;;14.95;2.80;;;;;;;;;;5089867;28;20509;-76
2022/03/19 09:55:31;;;;;;;13.80;2.80;;;;;;;;;;5089223;28;20060;-75
2022/03/19 09:58:00;;;;;;;13.13;2.90;;;;;;;;;;5083944;28;20048;-75
2022/03/19 10:00:27;;;;;;;10.88;2.30;;;;;;;;;;5091168;28;20097;-76
2022/03/19 10:03:01;;;;;;;12.00;2.88;;;;;;;;;;5087093;28;20052;-76
2022/03/19 10:11:00;;;;;;;8.77;2.15;;;;;;;;;;5090416;28;20048;-76
2022/03/19 10:13:27;;;;;;;9.07;2.40;;;;;;;;;;5093338;28;20189;-76
2022/03/19 10:15:55;;;;;;;13.10;3.10;;;;;;;;;;5095204;28;20063;-76
2022/03/19 10:18:29;;;;;;;11.00;2.45;;;;;;;;;;5096597;28;20129;-76
2022/03/19 10:20:56;;;;;;;16.00;2.45;;;;;;;;;;5092639;28;20526;-76
2022/03/19 10:23:33;;;;;;;10.00;2.38;;;;;;;;;;5088060;28;20112;-76
2022/03/19 10:26:01;;;;;;;11.85;2.80;;;;;;;;;;5090614;28;20052;-76
2022/03/19 10:28:32;;;;;;;13.80;2.40;;;;;;;;;;5090066;28;20062;-76
2022/03/19 10:30:59;;;;;;;12.38;2.47;;;;;;;;;;5084152;28;20052;-76
2022/03/19 10:33:28;;;;;;;11.63;2.88;;;;;;;;;;5089100;28;20050;-76
2022/03/19 10:36:07;;;;;;;13.52;2.60;;;;;;;;;;5087009;28;20052;-76
2022/03/19 10:38:42;;;;;;;8.38;2.35;;;;;;;;;;5091065;28;20043;-76
2022/03/19 10:41:09;;;;;;;16.17;3.30;;;;;;;;;;5086292;28;20052;-77
2022/03/19 10:43:36;;;;;;;8.43;2.75;;;;;;;;;;5077593;28;20093;-76
2022/03/19 10:46:04;;;;;;;15.57;2.83;;;;;;;;;;5086134;28;20048;-76
2022/03/19 10:48:32;;;;;;;16.67;2.42;;;;;;;;;;5082814;28;20056;-76
2022/03/19 10:51:01;;;;;;;10.57;2.55;;;;;;;;;;5085507;28;20044;-76
2022/03/19 10:53:29;;;;;;;21.02;3.08;;;;;;;;;;5106052;27;20434;-76
2022/03/19 10:55:56;;;;;;;10.25;2.15;;;;;;;;;;5086989;28;20137;-76
2022/03/19 10:58:24;;;;;;;9.38;2.53;;;;;;;;;;5084565;28;20044;-76
2022/03/19 11:00:52;;;;;;;12.25;2.70;;;;;;;;;;5084009;28;20063;-76
2022/03/19 11:03:20;;;;;;;10.45;2.08;;;;;;;;;;5085812;28;20108;-76
2022/03/19 11:05:50;;;;;;;10.68;1.90;;;;;;;;;;5086690;28;20051;-76
2022/03/19 11:08:19;;;;;;;5.45;1.60;;;;;;;;;;5087333;28;20146;-76
2022/03/19 11:10:49;;;;;;;6.63;1.80;;;;;;;;;;5084830;28;20050;-76
2022/03/19 11:13:21;;;;;;;6.78;1.55;;;;;;;;;;5087269;28;20540;-76
2022/03/19 11:15:51;;;;;;;8.88;2.10;;;;;;;;;;5084756;28;20055;-76
2022/03/19 11:18:20;;;;;;;10.68;2.08;;;;;;;;;;5082083;28;20056;-77
2022/03/19 11:20:48;;;;;;;9.45;2.10;;;;;;;;;;5088624;28;20146;-77
2022/03/19 11:23:17;;;;;;;10.60;1.65;;;;;;;;;;5087541;28;20059;-77
2022/03/19 11:25:46;;;;;;;6.22;1.58;;;;;;;;;;5083656;28;20547;-77
2022/03/19 11:28:15;;;;;;;5.93;1.55;;;;;;;;;;5085644;28;20052;-76
2022/03/19 11:30:45;;;;;;;9.30;1.70;;;;;;;;;;5091028;28;20047;-80
2022/03/19 11:33:18;;;;;;;4.68;1.33;;;;;;;;;;5087506;28;20048;-78
2022/03/19 11:35:46;;;;;;;6.57;2.00;;;;;;;;;;5085814;28;20047;-78
2022/03/19 11:38:15;;;;;;;10.93;1.80;;;;;;;;;;5091651;28;20043;-78
2022/03/19 11:40:46;;;;;;;10.13;2.20;;;;;;;;;;5082655;28;20047;-78
2022/03/19 11:43:17;;;;;;;8.70;2.30;;;;;;;;;;5085362;28;20157;-78
2022/03/19 11:45:55;;;;;;;12.18;2.20;;;;;;;;;;5081181;28;20048;-78
2022/03/19 11:48:42;;;;;;;7.07;2.05;;;;;;;;;;5091081;28;20051;-78
2022/03/19 11:51:31;;;;;;;7.55;1.70;;;;;;;;;;5092360;28;20102;-78
2022/03/19 11:53:59;;;;;;;8.48;2.08;;;;;;;;;;5079281;28;20138;-78
2022/03/19 11:56:27;;;;;;;6.15;1.45;;;;;;;;;;5084718;28;20521;-78
2022/03/19 11:58:56;;;;;;;8.70;1.73;;;;;;;;;;5114082;27;20060;-78
2022/03/19 12:01:42;;;;;;;8.77;1.98;;;;;;;;;;5083056;28;20052;-78
2022/03/19 12:04:13;;;;;;;6.82;1.80;;;;;;;;;;5078876;28;20052;-78
2022/03/19 12:06:50;;;;;;;7.40;2.28;;;;;;;;;;5084348;28;20059;-78
2022/03/19 12:09:17;;;;;;;7.10;2.38;;;;;;;;;;5081256;28;20056;-78
2022/03/19 12:12:00;;;;;;;6.75;2.20;;;;;;;;;;5076795;28;20519;-78
2022/03/19 12:14:29;;;;;;;8.80;2.45;;;;;;;;;;5083483;28;20143;-78
2022/03/19 12:17:15;;;;;;;12.32;3.30;;;;;;;;;;5084384;28;20048;-78
2022/03/19 12:19:54;;;;;;;13.43;3.30;;;;;;;;;;5083224;28;20048;-77
2022/03/19 12:22:29;;;;;;;10.93;2.80;;;;;;;;;;5078713;28;20048;-78
2022/03/19 12:24:59;;;;;;;12.40;3.50;;;;;;;;;;5080602;28;20103;-78
2022/03/19 12:27:26;;;;;;;12.52;3.15;;;;;;;;;;5081097;28;20402;-78
2022/03/19 12:29:58;;;;;;;9.63;3.17;;;;;;;;;;5082670;28;20052;-78
2022/03/19 12:32:26;;;;;;;11.40;2.88;;;;;;;;;;5114079;28;20183;-78
2022/03/19 12:34:58;;;;;;;9.82;3.03;;;;;;;;;;5075623;28;20079;-78
2022/03/19 12:37:26;;;;;;;10.13;2.70;;;;;;;;;;5079279;28;20056;-78
2022/03/19 12:40:00;;;;;;;21.15;2.90;;;;;;;;;;5083382;28;20065;-78
2022/03/19 12:42:31;;;;;;;7.90;2.67;;;;;;;;;;5083581;28;20066;-79
2022/03/19 12:45:03;;;;;;;12.82;2.42;;;;;;;;;;5082501;28;20063;-78
2022/03/19 12:47:30;;;;;;;6.37;2.57;;;;;;;;;;5081880;28;20047;-78
2022/03/19 12:49:57;;;;;;;8.40;2.60;;;;;;;;;;5082897;28;20525;-78
2022/03/19 12:52:26;;;;;;;7.22;2.45;;;;;;;;;;5081731;28;20048;-78
2022/03/19 12:54:55;;;;;;;8.85;2.88;;;;;;;;;;5080288;28;20434;-78
2022/03/19 12:57:24;;;;;;;7.10;2.45;;;;;;;;;;5084434;28;20167;-78
2022/03/19 12:59:52;;;;;;;14.13;2.65;;;;;;;;;;5081908;28;20142;-78
2022/03/19 13:02:21;;;;;;;8.93;2.47;;;;;;;;;;5083038;28;20050;-78
2022/03/19 13:04:48;;;;;;;12.05;2.88;;;;;;;;;;5081974;28;20538;-78
2022/03/19 13:07:17;;;;;;;6.55;2.60;;;;;;;;;;5083675;28;20706;-78
2022/03/19 13:09:44;;;;;;;6.68;2.60;;;;;;;;;;5083939;28;20052;-78
2022/03/19 13:12:16;;;;;;;9.93;2.88;;;;;;;;;;5082805;28;20056;-78
2022/03/19 13:14:48;;;;;;;10.10;2.88;;;;;;;;;;5082922;28;20048;-78
2022/03/19 13:17:16;;;;;;;6.68;2.80;;;;;;;;;;5084628;28;20060;-78
2022/03/19 13:19:45;;;;;;;15.45;2.88;;;;;;;;;;5084788;28;20046;-78
2022/03/19 13:22:19;;;;;;;8.38;2.60;;;;;;;;;;5082077;28;20060;-78
2022/03/19 13:24:46;;;;;;;7.00;2.38;;;;;;;;;;5087751;28;20121;-78
2022/03/19 13:27:14;;;;;;;7.28;2.75;;;;;;;;;;5087965;28;20056;-78
2022/03/19 13:29:41;;;;;;;6.95;2.45;;;;;;;;;;5084878;28;20044;-78
2022/03/19 13:32:09;;;;;;;7.72;2.53;;;;;;;;;;5084066;28;20418;-78
2022/03/19 13:34:38;;;;;;;7.18;2.53;;;;;;;;;;5083989;28;20117;-78
2022/03/19 13:37:08;;;;;;;8.05;2.70;;;;;;;;;;5081622;28;20138;-78
2022/03/19 13:39:36;;;;;;;10.63;2.75;;;;;;;;;;5085352;28;20641;-78
2022/03/19 13:42:04;;;;;;;6.40;2.25;;;;;;;;;;5082879;28;20131;-78
2022/03/19 13:44:33;;;;;;;8.88;2.83;;;;;;;;;;5087388;28;20063;-78
2022/03/19 13:47:07;;;;;;;12.15;2.78;;;;;;;;;;5085987;28;20156;-78
2022/03/19 13:49:38;;;;;;;8.95;2.75;;;;;;;;;;5086070;28;20070;-78
2022/03/19 13:52:07;;;;;;;9.02;2.90;;;;;;;;;;5086981;28;20121;-78
2022/03/19 13:54:44;;;;;;;15.73;4.03;;;;;;;;;;5085501;28;20049;-78
2022/03/19 13:57:13;;;;;;;11.38;3.45;;;;;;;;;;5085004;28;20557;-78
2022/03/19 13:59:42;;;;;;;10.52;3.15;;;;;;;;;;5084418;28;20048;-78
2022/03/19 14:02:09;;;;;;;13.07;3.67;;;;;;;;;;5085124;28;20063;-78
2022/03/19 14:04:37;;;;;;;11.60;3.25;;;;;;;;;;5081220;28;20055;-78
2022/03/19 14:07:05;;;;;;;10.15;3.40;;;;;;;;;;5086736;28;20056;-78
2022/03/19 14:09:33;;;;;;;12.75;3.65;;;;;;;;;;5084753;28;20048;-78
2022/03/19 14:12:01;;;;;;;13.68;4.03;;;;;;;;;;5084480;28;20056;-78
2022/03/19 14:14:28;;;;;;;12.90;4.30;;;;;;;;;;5082936;28;20060;-78
2022/03/19 14:16:57;;;;;;;12.80;3.80;;;;;;;;;;5076774;28;20063;-78
2022/03/19 14:19:25;;;;;;;10.40;3.63;;;;;;;;;;5085534;28;20047;-78
2022/03/19 14:21:52;;;;;;;14.93;4.43;;;;;;;;;;5085874;28;20516;-78
2022/03/19 14:24:19;;;;;;;15.45;3.90;;;;;;;;;;5082762;28;20056;-78
2022/03/19 14:26:50;;;;;;;17.20;4.32;;;;;;;;;;5083986;28;20056;-78
2022/03/19 14:29:17;;;;;;;19.23;4.28;;;;;;;;;;5085488;28;20091;-78
2022/03/19 14:31:44;;;;;;;19.20;4.38;;;;;;;;;;5085255;28;20051;-78
2022/03/19 14:34:13;;;;;;;15.82;4.60;;;;;;;;;;5085907;28;20088;-78
2022/03/19 14:36:40;;;;;;;15.68;4.40;;;;;;;;;;5085132;28;20060;-78
2022/03/19 14:39:08;;;;;;;17.45;4.90;;;;;;;;;;5083211;28;20056;-78
2022/03/19 14:41:37;;;;;;;84.53;6.85;;;;;;;;;;5083409;28;20051;-78
2022/03/19 14:44:06;;;;;;;16.05;4.15;;;;;;;;;;5084648;28;20063;-78
2022/03/19 14:46:33;;;;;;;16.40;3.95;;;;;;;;;;5085662;28;20189;-78
2022/03/19 14:49:01;;;;;;;17.50;4.88;;;;;;;;;;5085507;28;20420;-77
2022/03/19 14:51:28;;;;;;;17.77;4.75;;;;;;;;;;5083860;28;20051;-77
2022/03/19 14:53:55;;;;;;;12.27;3.88;;;;;;;;;;5119104;27;20066;-77